createdAt,value
2017-11-10T00:00:15.076Z,16.05
2017-11-10T00:02:42.323Z,16.02
2017-11-10T00:05:08.692Z,14.25
2017-11-10T00:07:35.069Z,16.10
2017-11-10T00:10:01.454Z,15.38
2017-11-10T00:12:27.814Z,14.87
2017-11-10T00:14:54.175Z,14.85
2017-11-10T00:17:20.559Z,16.45
2017-11-10T00:19:46.940Z,17.15
2017-11-10T00:22:13.298Z,15.45
2017-11-10T00:24:39.654Z,15.02
2017-11-10T00:27:06.022Z,14.73
2017-11-10T00:29:32.397Z,14.52
2017-11-10T00:31:58.792Z,14.80
2017-11-10T00:34:25.187Z,13.30
2017-11-10T00:36:52.531Z,15.10
2017-11-10T00:39:18.891Z,15.30
2017-11-10T00:41:46.000Z,14.00
2017-11-10T00:44:12.409Z,13.95
2017-11-10T00:46:38.763Z,13.82
2017-11-10T00:49:05.129Z,13.60
2017-11-10T00:51:32.267Z,15.75
2017-11-10T00:53:58.623Z,15.13
2017-11-10T00:56:24.999Z,15.20
2017-11-10T00:58:51.353Z,14.73
2017-11-10T01:01:17.725Z,14.45
2017-11-10T01:03:44.090Z,16.17
2017-11-10T01:06:10.444Z,14.73
2017-11-10T01:08:36.807Z,15.55
2017-11-10T01:11:03.922Z,13.80
2017-11-10T01:13:30.303Z,14.87
2017-11-10T01:15:56.660Z,15.52
2017-11-10T01:18:23.060Z,15.60
2017-11-10T01:20:49.429Z,15.20
2017-11-10T01:23:15.928Z,14.70
2017-11-10T01:25:42.291Z,14.10
2017-11-10T01:28:08.656Z,16.25
2017-11-10T01:30:35.778Z,15.02
2017-11-10T01:33:02.161Z,14.98
2017-11-10T01:35:28.548Z,14.93
2017-11-10T01:37:54.914Z,17.15
2017-11-10T01:40:22.031Z,15.50
2017-11-10T01:42:48.435Z,16.92
2017-11-10T01:45:15.816Z,14.80
2017-11-10T01:47:42.222Z,13.35
2017-11-10T01:50:08.597Z,14.15
2017-11-10T01:52:35.752Z,15.70
2017-11-10T01:55:02.903Z,14.05
2017-11-10T01:57:30.128Z,15.90
2017-11-10T01:59:56.563Z,13.13
2017-11-10T02:02:22.970Z,14.87
2017-11-10T02:04:49.380Z,13.98
2017-11-10T02:07:15.767Z,14.48
2017-11-10T02:09:42.207Z,13.85
2017-11-10T02:12:08.623Z,15.45
2017-11-10T02:14:35.028Z,14.63
2017-11-10T02:17:01.425Z,15.20
2017-11-10T02:19:27.863Z,15.32
2017-11-10T02:21:54.332Z,15.90
2017-11-10T02:24:20.748Z,15.15
2017-11-10T02:26:47.146Z,14.52
2017-11-10T02:29:14.326Z,14.80
2017-11-10T02:31:40.734Z,15.15
2017-11-10T02:34:07.159Z,14.90
2017-11-10T02:36:34.313Z,16.45
2017-11-10T02:39:00.699Z,15.30
2017-11-10T02:41:27.220Z,16.00
2017-11-10T02:43:53.616Z,14.77
2017-11-10T02:46:20.032Z,14.77
2017-11-10T02:48:47.191Z,14.68
2017-11-10T02:51:14.340Z,16.27
2017-11-10T02:53:41.492Z,15.50
2017-11-10T02:56:08.592Z,15.52
2017-11-10T02:58:34.998Z,15.25
2017-11-10T03:01:01.420Z,14.70
2017-11-10T03:03:27.815Z,15.35
2017-11-10T03:05:54.923Z,13.93
2017-11-10T03:08:21.357Z,14.15
2017-11-10T03:10:47.760Z,13.55
2017-11-10T03:13:14.180Z,14.82
2017-11-10T03:15:40.675Z,15.13
2017-11-10T03:18:07.069Z,13.70
2017-11-10T03:20:34.448Z,15.30
2017-11-10T03:23:00.847Z,14.38
2017-11-10T03:25:27.231Z,13.98
2017-11-10T03:27:53.611Z,13.82
2017-11-10T03:30:20.021Z,13.25
2017-11-10T03:32:47.186Z,13.70
2017-11-10T03:35:13.567Z,11.55
2017-11-10T03:37:39.984Z,11.73
2017-11-10T03:40:06.352Z,12.20
2017-11-10T03:42:33.471Z,13.48
2017-11-10T03:44:59.858Z,12.43
2017-11-10T03:47:26.227Z,13.10
2017-11-10T03:49:52.623Z,12.48
2017-11-10T03:52:19.014Z,12.52
2017-11-10T03:54:46.405Z,12.82
2017-11-10T03:57:12.799Z,12.45
2017-11-10T03:59:39.174Z,11.07
2017-11-10T04:02:05.562Z,11.95
2017-11-10T04:04:31.960Z,11.93
2017-11-10T04:06:58.319Z,12.40
2017-11-10T04:09:24.702Z,13.32
2017-11-10T04:11:51.138Z,11.57
2017-11-10T04:14:18.293Z,10.85
2017-11-10T04:16:44.671Z,11.88
2017-11-10T04:19:11.807Z,11.40
2017-11-10T04:21:38.219Z,10.30
2017-11-10T04:24:04.615Z,11.63
2017-11-10T04:26:31.028Z,10.82
2017-11-10T04:28:58.155Z,11.80
2017-11-10T04:31:24.535Z,9.88
2017-11-10T04:33:50.934Z,10.05
2017-11-10T04:36:18.115Z,9.75
2017-11-10T04:38:44.500Z,9.82
2017-11-10T04:41:10.898Z,10.75
2017-11-10T04:43:38.324Z,9.70
2017-11-10T04:46:05.453Z,10.80
2017-11-10T04:48:31.825Z,11.05
2017-11-10T04:50:58.240Z,10.77
2017-11-10T04:53:24.640Z,10.65
2017-11-10T04:55:51.037Z,10.60
2017-11-10T04:58:17.479Z,10.98
2017-11-10T05:00:43.851Z,9.75
2017-11-10T05:03:10.988Z,10.55
2017-11-10T05:05:37.359Z,10.88
2017-11-10T05:08:04.824Z,12.57
2017-11-10T05:10:31.239Z,9.68
2017-11-10T05:12:57.606Z,11.27
2017-11-10T05:15:23.999Z,10.48
2017-11-10T05:17:50.407Z,11.55
2017-11-10T05:20:16.808Z,10.75
2017-11-10T05:22:43.258Z,10.85
2017-11-10T05:25:09.706Z,11.35
2017-11-10T05:27:36.874Z,10.85
2017-11-10T05:30:04.087Z,11.75
2017-11-10T05:32:30.501Z,9.95
2017-11-10T05:34:56.924Z,10.88
2017-11-10T05:37:23.339Z,10.85
2017-11-10T05:39:49.762Z,11.48
2017-11-10T05:42:16.196Z,10.80
2017-11-10T05:44:42.564Z,11.70
2017-11-10T05:47:08.983Z,12.00
2017-11-10T05:49:35.384Z,11.23
2017-11-10T05:52:01.791Z,9.35
2017-11-10T05:54:28.201Z,11.10
2017-11-10T05:56:54.614Z,9.55
2017-11-10T05:59:21.024Z,11.35
2017-11-10T06:01:47.511Z,10.00
2017-11-10T06:04:13.975Z,10.40
2017-11-10T06:06:40.376Z,10.40
2017-11-10T06:09:06.768Z,10.43
2017-11-10T06:11:33.176Z,11.57
2017-11-10T06:13:59.551Z,10.13
2017-11-10T06:16:25.959Z,9.75
2017-11-10T06:18:52.367Z,10.70
2017-11-10T06:21:19.788Z,11.60
2017-11-10T06:23:47.315Z,10.60
2017-11-10T06:26:13.710Z,10.60
2017-11-10T06:28:40.859Z,10.00
2017-11-10T06:31:07.980Z,10.32
2017-11-10T06:33:35.142Z,11.02
2017-11-10T06:36:03.932Z,11.85
2017-11-10T06:38:34.894Z,11.55
2017-11-10T06:41:01.301Z,12.27
2017-11-10T06:43:28.483Z,12.65
2017-11-10T06:45:55.897Z,10.93
2017-11-10T06:48:22.299Z,10.73
2017-11-10T06:50:48.705Z,11.15
2017-11-10T06:53:15.081Z,10.38
2017-11-10T06:55:41.446Z,10.23
2017-11-10T06:58:08.563Z,10.00
2017-11-10T07:00:34.971Z,10.75
2017-11-10T07:03:01.379Z,10.25
2017-11-10T07:05:27.775Z,12.90
2017-11-10T07:07:54.940Z,11.57
2017-11-10T07:10:22.119Z,12.25
2017-11-10T07:12:48.537Z,12.43
2017-11-10T07:15:14.935Z,12.00
2017-11-10T07:17:41.312Z,12.02
2017-11-10T07:20:08.464Z,10.40
2017-11-10T07:22:34.842Z,10.60
2017-11-10T07:25:01.203Z,12.07
2017-11-10T07:27:27.613Z,10.30
2017-11-10T07:29:54.725Z,13.52
2017-11-10T07:32:21.088Z,10.70
2017-11-10T07:34:47.470Z,10.85
2017-11-10T07:37:13.831Z,14.50
2017-11-10T07:39:40.204Z,13.60
2017-11-10T07:42:06.592Z,10.50
2017-11-10T07:44:32.965Z,10.65
2017-11-10T07:47:01.088Z,11.48
2017-11-10T07:49:27.450Z,8.50
2017-11-10T07:51:55.722Z,9.57
2017-11-10T07:54:22.080Z,10.90
2017-11-10T07:56:48.451Z,10.40
2017-11-10T07:59:14.818Z,11.20
2017-11-10T08:01:41.969Z,12.25
2017-11-10T08:04:09.081Z,11.60
2017-11-10T08:06:35.443Z,11.63
2017-11-10T08:09:02.638Z,11.88
2017-11-10T08:11:30.023Z,11.30
2017-11-10T08:13:56.451Z,12.35
2017-11-10T08:16:22.856Z,13.52
2017-11-10T08:18:49.265Z,12.10
2017-11-10T08:21:16.363Z,12.10
2017-11-10T08:23:42.746Z,13.35
2017-11-10T08:26:09.139Z,14.05
2017-11-10T08:28:35.559Z,13.20
2017-11-10T08:31:01.975Z,11.93
2017-11-10T08:33:28.368Z,13.95
2017-11-10T08:35:55.500Z,14.93
2017-11-10T08:38:22.647Z,12.50
2017-11-10T08:40:49.052Z,13.07
2017-11-10T08:43:15.439Z,13.10
2017-11-10T08:45:41.835Z,13.32
2017-11-10T08:48:08.329Z,12.63
2017-11-10T08:50:34.858Z,14.50
2017-11-10T08:53:01.304Z,13.07
2017-11-10T08:55:27.678Z,15.00
2017-11-10T08:57:54.037Z,13.25
2017-11-10T09:00:21.470Z,12.85
2017-11-10T09:02:48.572Z,13.75
2017-11-10T09:05:14.936Z,14.32
2017-11-10T09:07:41.311Z,13.35
2017-11-10T09:10:07.707Z,12.88
2017-11-10T09:12:34.855Z,12.37
2017-11-10T09:15:02.016Z,12.45
2017-11-10T09:17:29.154Z,13.00
2017-11-10T09:19:55.533Z,13.65
2017-11-10T09:22:21.935Z,12.15
2017-11-10T09:24:49.125Z,13.07
2017-11-10T09:27:21.445Z,13.25
2017-11-10T09:29:51.460Z,14.32
2017-11-10T09:32:20.603Z,13.50
2017-11-10T09:34:50.706Z,11.85
2017-11-10T09:37:20.035Z,12.48
2017-11-10T09:42:47.675Z,14.30
2017-11-10T09:45:29.969Z,14.65
2017-11-10T09:48:03.267Z,14.73
2017-11-10T09:53:41.977Z,13.68
2017-11-10T09:56:23.302Z,13.32
2017-11-10T09:58:50.551Z,16.20
2017-11-10T10:01:23.052Z,12.82
2017-11-10T10:03:50.422Z,12.20
2017-11-10T10:06:36.646Z,14.18
2017-11-10T10:09:16.727Z,13.20
2017-11-10T10:12:03.046Z,12.43
2017-11-10T10:14:29.480Z,14.23
2017-11-10T10:17:14.895Z,14.32
2017-11-10T10:19:47.456Z,12.48
2017-11-10T10:22:27.695Z,12.98
2017-11-10T10:24:54.088Z,14.35
2017-11-10T10:27:21.228Z,12.77
2017-11-10T10:29:48.343Z,11.93
2017-11-10T10:32:14.700Z,13.07
2017-11-10T10:34:41.835Z,12.27
2017-11-10T10:37:08.263Z,13.25
2017-11-10T10:39:34.699Z,12.35
2017-11-10T10:42:01.120Z,12.75
2017-11-10T10:44:27.530Z,11.40
2017-11-10T10:46:53.916Z,11.45
2017-11-10T10:49:21.120Z,12.30
2017-11-10T10:51:48.507Z,12.02
2017-11-10T10:54:14.903Z,12.50
2017-11-10T10:56:41.292Z,13.13
2017-11-10T10:59:07.711Z,12.65
2017-11-10T11:01:34.840Z,13.13
2017-11-10T11:04:01.228Z,12.82
2017-11-10T11:06:27.640Z,13.40
2017-11-10T11:08:54.807Z,11.45
2017-11-10T11:11:21.931Z,12.90
2017-11-10T11:13:49.080Z,11.90
2017-11-10T11:16:16.210Z,13.50
2017-11-10T11:18:42.631Z,12.77
2017-11-10T11:21:09.048Z,13.00
2017-11-10T11:23:35.524Z,12.20
2017-11-10T11:26:02.709Z,13.20
2017-11-10T11:28:29.811Z,11.57
2017-11-10T11:30:56.194Z,12.48
2017-11-10T11:33:22.560Z,12.57
2017-11-10T11:35:48.927Z,14.45
2017-11-10T11:38:16.025Z,13.52
2017-11-10T11:40:42.397Z,13.20
2017-11-10T11:43:09.508Z,14.65
2017-11-10T11:45:35.879Z,12.20
2017-11-10T11:48:03.021Z,13.70
2017-11-10T11:50:30.179Z,14.18
2017-11-10T11:52:57.318Z,13.85
2017-11-10T11:55:24.456Z,13.88
2017-11-10T11:57:50.842Z,13.82
2017-11-10T12:00:17.257Z,13.40
2017-11-10T12:02:43.727Z,12.25
2017-11-10T12:05:10.122Z,12.88
2017-11-10T12:07:36.523Z,11.50
2017-11-10T12:10:03.697Z,12.98
2017-11-10T12:12:30.100Z,11.73
2017-11-10T12:14:56.621Z,11.85
2017-11-10T12:17:23.021Z,12.70
2017-11-10T12:19:49.412Z,12.73
2017-11-10T12:22:16.581Z,11.93
2017-11-10T12:24:42.995Z,12.00
2017-11-10T12:27:10.151Z,12.60
2017-11-10T12:29:37.347Z,11.38
2017-11-10T12:32:03.744Z,12.25
2017-11-10T12:34:30.180Z,11.05
2017-11-10T12:36:56.574Z,10.93
2017-11-10T12:39:22.959Z,11.90
2017-11-10T12:41:49.379Z,11.00
2017-11-10T12:44:15.779Z,11.25
2017-11-10T12:46:42.952Z,12.00
2017-11-10T12:49:09.556Z,10.52
2017-11-10T12:51:35.980Z,12.10
2017-11-10T12:54:02.406Z,11.32
2017-11-10T12:56:29.808Z,10.57
2017-11-10T12:58:56.231Z,10.25
2017-11-10T13:01:22.623Z,11.27
2017-11-10T13:03:49.052Z,11.55
2017-11-10T13:06:15.487Z,11.60
2017-11-10T13:08:41.938Z,10.85
2017-11-10T13:11:08.340Z,12.88
2017-11-10T13:13:34.801Z,10.60
2017-11-10T13:16:01.990Z,10.50
2017-11-10T13:18:28.406Z,10.65
2017-11-10T13:20:55.593Z,11.27
2017-11-10T13:23:21.996Z,11.23
2017-11-10T13:25:48.367Z,10.77
2017-11-10T13:28:14.750Z,10.75
2017-11-10T13:30:41.882Z,10.63
2017-11-10T13:33:09.011Z,10.63
2017-11-10T13:35:35.378Z,10.05
2017-11-10T13:38:03.470Z,11.05
2017-11-10T13:40:29.864Z,12.48
2017-11-10T13:42:56.226Z,10.35
2017-11-10T13:45:22.605Z,11.73
2017-11-10T13:47:48.984Z,10.48
2017-11-10T13:50:15.347Z,10.13
2017-11-10T13:52:42.473Z,9.98
2017-11-10T13:55:08.864Z,11.43
2017-11-10T13:57:35.249Z,10.18
2017-11-10T14:00:01.663Z,8.93
2017-11-10T14:02:28.033Z,11.52
2017-11-10T14:04:54.452Z,11.52
2017-11-10T14:07:20.934Z,12.75
2017-11-10T14:09:48.066Z,12.50
2017-11-10T14:12:14.507Z,10.75
2017-11-10T14:14:40.916Z,10.35
2017-11-10T14:17:07.312Z,9.98
2017-11-10T14:19:33.753Z,10.48
2017-11-10T14:22:00.148Z,11.73
2017-11-10T14:24:27.309Z,10.10
2017-11-10T14:26:54.424Z,12.80
2017-11-10T14:29:20.818Z,11.10
2017-11-10T14:31:47.184Z,11.38
2017-11-10T14:34:13.559Z,10.75
2017-11-10T14:36:39.952Z,11.80
2017-11-10T14:39:06.317Z,11.82
2017-11-10T14:41:32.695Z,9.65
2017-11-10T14:43:59.078Z,11.43
2017-11-10T14:46:26.179Z,11.90
2017-11-10T14:48:52.555Z,9.88
2017-11-10T14:51:18.927Z,12.27
2017-11-10T14:53:45.312Z,11.15
2017-11-10T14:56:12.422Z,11.60
2017-11-10T14:58:38.785Z,11.55
2017-11-10T15:01:05.909Z,10.40
2017-11-10T15:03:32.332Z,10.82
2017-11-10T15:05:58.710Z,12.50
2017-11-10T15:08:25.827Z,12.27
2017-11-10T15:10:52.263Z,13.38
2017-11-10T15:13:18.689Z,10.23
2017-11-10T15:15:45.116Z,12.55
2017-11-10T15:18:11.482Z,12.55
2017-11-10T15:20:38.624Z,11.95
2017-11-10T15:23:05.754Z,11.07
2017-11-10T15:25:32.130Z,12.18
2017-11-10T15:27:58.521Z,12.23
2017-11-10T15:30:24.946Z,14.15
2017-11-10T15:32:51.348Z,12.40
2017-11-10T15:35:17.727Z,14.50
2017-11-10T15:37:44.843Z,14.60
2017-11-10T15:40:11.227Z,16.02
2017-11-10T15:42:37.644Z,13.27
2017-11-10T15:45:04.784Z,13.07
2017-11-10T15:47:31.171Z,13.27
2017-11-10T15:49:57.589Z,14.10
2017-11-10T15:52:23.967Z,12.25
2017-11-10T15:54:50.336Z,10.65
2017-11-10T15:57:16.764Z,12.18
2017-11-10T15:59:43.892Z,11.60
2017-11-10T16:02:11.040Z,12.32
2017-11-10T16:04:37.432Z,12.10
2017-11-10T16:07:03.805Z,12.30
2017-11-10T16:09:30.912Z,11.30
2017-11-10T16:11:58.340Z,11.40
2017-11-10T16:14:24.701Z,11.18
2017-11-10T16:16:51.060Z,11.05
2017-11-10T16:19:17.427Z,11.73
2017-11-10T16:21:43.816Z,11.70
2017-11-10T16:24:10.243Z,11.12
2017-11-10T16:26:36.692Z,13.30
2017-11-10T16:29:03.079Z,9.25
2017-11-10T16:31:29.439Z,10.00
2017-11-10T16:33:55.807Z,10.50
2017-11-10T16:36:22.904Z,12.18
2017-11-10T16:38:49.287Z,10.32
2017-11-10T16:41:16.693Z,7.85
2017-11-10T16:43:43.087Z,7.95
2017-11-10T16:46:09.460Z,8.10
2017-11-10T16:48:35.828Z,8.30
2017-11-10T16:51:02.948Z,7.95
2017-11-10T16:53:29.388Z,7.75
2017-11-10T16:55:55.791Z,6.85
2017-11-10T16:58:22.172Z,6.70
2017-11-10T17:00:49.300Z,7.15
2017-11-10T17:03:15.695Z,6.20
2017-11-10T17:05:42.108Z,6.68
2017-11-10T17:08:08.523Z,6.30
2017-11-10T17:10:37.928Z,6.55
2017-11-10T17:13:05.076Z,6.70
2017-11-10T17:15:32.243Z,4.82
2017-11-10T17:17:58.639Z,6.20
2017-11-10T17:20:25.057Z,6.00
2017-11-10T17:22:51.433Z,6.37
2017-11-10T17:25:17.792Z,5.90
2017-11-10T17:27:44.231Z,6.65
2017-11-10T17:30:10.618Z,6.22
2017-11-10T17:32:37.737Z,5.55
2017-11-10T17:35:04.125Z,6.68
2017-11-10T17:37:30.517Z,5.90
2017-11-10T17:39:57.656Z,5.57
2017-11-10T17:42:25.816Z,4.85
2017-11-10T17:44:52.205Z,5.22
2017-11-10T17:47:18.639Z,5.65
2017-11-10T17:49:45.063Z,6.12
2017-11-10T17:52:11.467Z,5.62
2017-11-10T17:54:38.598Z,6.07
2017-11-10T17:57:05.032Z,7.15
2017-11-10T17:59:31.471Z,9.10
2017-11-10T18:01:58.885Z,9.52
2017-11-10T18:04:25.276Z,4.78
2017-11-10T18:06:52.402Z,5.05
2017-11-10T18:09:18.759Z,3.08
2017-11-10T18:11:46.927Z,3.35
2017-11-10T18:14:14.051Z,2.72
2017-11-10T18:16:40.451Z,3.85
2017-11-10T18:19:07.831Z,3.00
2017-11-10T18:21:34.233Z,4.00
2017-11-10T18:24:00.599Z,4.90
2017-11-10T18:26:26.951Z,3.35
2017-11-10T18:28:53.336Z,3.62
2017-11-10T18:31:19.726Z,3.50
2017-11-10T18:33:46.841Z,2.47
2017-11-10T18:36:13.248Z,3.55
2017-11-10T18:38:39.638Z,3.00
2017-11-10T18:41:06.098Z,4.22
2017-11-10T18:43:32.519Z,5.18
2017-11-10T18:45:58.935Z,7.25
2017-11-10T18:48:32.079Z,7.00
2017-11-10T18:50:58.478Z,4.25
2017-11-10T18:53:24.864Z,16.35
2017-11-10T18:55:52.170Z,13.98
2017-11-10T18:58:18.551Z,3.55
2017-11-10T19:00:45.759Z,35.15
2017-11-10T19:03:12.168Z,10.00
2017-11-10T19:05:38.574Z,9.98
2017-11-10T19:08:05.704Z,4.50
2017-11-10T19:10:32.119Z,11.85
2017-11-10T19:12:58.500Z,6.93
2017-11-10T19:15:25.621Z,13.45
2017-11-10T19:17:52.012Z,26.60
2017-11-10T19:20:19.781Z,14.15
2017-11-10T19:22:46.140Z,18.17
2017-11-10T19:25:12.503Z,8.18
2017-11-10T19:27:38.909Z,11.25
2017-11-10T19:30:05.339Z,8.18
2017-11-10T19:32:31.734Z,7.62
2017-11-10T19:34:58.112Z,8.77
2017-11-10T19:37:25.266Z,9.02
2017-11-10T19:40:04.615Z,13.05
2017-11-10T19:42:31.004Z,8.73
2017-11-10T19:44:57.368Z,11.57
2017-11-10T19:47:23.775Z,9.32
2017-11-10T19:49:50.201Z,10.90
2017-11-10T19:52:16.608Z,4.87
2017-11-10T19:54:42.976Z,3.92
2017-11-10T19:57:09.601Z,14.48
2017-11-10T19:59:36.968Z,6.37
2017-11-10T20:02:03.350Z,3.25
2017-11-10T20:04:29.715Z,3.75
2017-11-10T20:06:56.079Z,3.37
2017-11-10T20:09:23.183Z,3.70
2017-11-10T20:11:49.536Z,4.00
2017-11-10T20:14:15.896Z,3.03
2017-11-10T20:16:43.012Z,4.20
2017-11-10T20:19:09.372Z,3.90
2017-11-10T20:21:36.519Z,3.35
2017-11-10T20:24:03.691Z,3.72
2017-11-10T20:26:30.071Z,4.10
2017-11-10T20:28:56.516Z,2.60
2017-11-10T20:31:22.919Z,7.82
2017-11-10T20:33:49.457Z,4.00
2017-11-10T20:36:15.852Z,5.00
2017-11-10T20:38:42.206Z,3.75
2017-11-10T20:41:08.588Z,3.15
2017-11-10T20:43:35.723Z,3.62
2017-11-10T20:46:02.105Z,2.97
2017-11-10T20:48:28.609Z,4.10
2017-11-10T20:50:56.815Z,3.60
2017-11-10T20:53:23.245Z,2.62
2017-11-10T20:55:49.604Z,2.30
2017-11-10T20:58:15.995Z,5.57
2017-11-10T21:00:42.366Z,2.80
2017-11-10T21:03:08.749Z,2.85
2017-11-10T21:05:35.139Z,3.65
2017-11-10T21:08:01.513Z,3.03
2017-11-10T21:10:27.890Z,3.30
2017-11-10T21:12:54.308Z,4.43
2017-11-10T21:15:20.736Z,3.87
2017-11-10T21:17:47.144Z,3.67
2017-11-10T21:20:13.552Z,3.50
2017-11-10T21:22:40.976Z,2.95
2017-11-10T21:25:07.367Z,2.97
2017-11-10T21:27:33.799Z,2.70
2017-11-10T21:30:00.200Z,2.95
2017-11-10T21:32:27.559Z,3.15
2017-11-10T21:34:55.687Z,2.65
2017-11-10T21:37:22.077Z,3.72
2017-11-10T21:39:49.205Z,2.70
2017-11-10T21:42:15.584Z,2.87
2017-11-10T21:44:41.989Z,2.40
2017-11-10T21:47:08.399Z,3.40
2017-11-10T21:49:34.760Z,3.12
2017-11-10T21:52:01.131Z,2.35
2017-11-10T21:54:27.556Z,3.20
2017-11-10T21:56:53.992Z,3.03
2017-11-10T21:59:20.424Z,2.95
2017-11-10T22:01:46.812Z,2.75
2017-11-10T22:04:13.958Z,6.47
2017-11-10T22:06:41.090Z,5.15
2017-11-10T22:09:08.704Z,2.53
2017-11-10T22:11:35.103Z,4.10
2017-11-10T22:14:03.080Z,3.80
2017-11-10T22:16:29.471Z,4.20
2017-11-10T22:18:55.835Z,4.30
2017-11-10T22:21:23.015Z,2.60
2017-11-10T22:23:49.396Z,2.55
2017-11-10T22:26:16.522Z,2.87
2017-11-10T22:28:42.919Z,2.08
2017-11-10T22:31:09.332Z,2.00
2017-11-10T22:33:35.733Z,2.40
2017-11-10T22:36:02.120Z,2.35
2017-11-10T22:38:28.462Z,3.25
2017-11-10T22:40:54.885Z,2.20
2017-11-10T22:43:21.252Z,2.50
2017-11-10T22:45:48.689Z,2.70
2017-11-10T22:48:15.051Z,1.75
2017-11-10T22:50:42.175Z,2.72
2017-11-10T22:53:08.536Z,2.25
2017-11-10T22:55:35.666Z,2.12
2017-11-10T22:58:02.040Z,2.20
2017-11-10T23:00:28.432Z,2.28
2017-11-10T23:02:54.821Z,3.55
2017-11-10T23:05:21.789Z,3.12
2017-11-10T23:07:48.160Z,3.90
2017-11-10T23:10:15.300Z,3.92
2017-11-10T23:12:42.407Z,6.05
2017-11-10T23:15:08.798Z,5.00
2017-11-10T23:17:36.292Z,4.00
2017-11-10T23:20:02.735Z,4.10
2017-11-10T23:22:29.135Z,4.32
2017-11-10T23:24:55.505Z,4.37
2017-11-10T23:27:21.908Z,5.12
2017-11-10T23:29:48.294Z,4.72
2017-11-10T23:32:14.652Z,5.68
2017-11-10T23:34:41.043Z,5.60
2017-11-10T23:37:08.420Z,4.62
2017-11-10T23:39:35.549Z,4.60
2017-11-10T23:42:01.932Z,5.62
2017-11-10T23:44:29.312Z,4.85
2017-11-10T23:46:55.672Z,4.62
2017-11-10T23:49:22.055Z,5.65
2017-11-10T23:51:48.430Z,5.25
2017-11-10T23:54:14.796Z,5.65
2017-11-10T23:56:41.154Z,6.12
2017-11-10T23:59:07.534Z,6.15
